createdAt,value
2018-12-17T00:01:39.203Z,46.25
2018-12-17T00:04:05.531Z,42.27
2018-12-17T00:06:31.838Z,43.15
2018-12-17T00:08:58.151Z,41.42
2018-12-17T00:11:24.842Z,43.80
2018-12-17T00:13:51.141Z,43.50
2018-12-17T00:16:17.435Z,39.55
2018-12-17T00:18:43.693Z,42.53
2018-12-17T00:21:09.970Z,44.80
2018-12-17T00:23:36.283Z,39.88
2018-12-17T00:26:02.707Z,41.15
2018-12-17T00:28:29.037Z,44.00
2018-12-17T00:30:55.343Z,42.15
2018-12-17T00:33:21.602Z,47.48
2018-12-17T00:35:47.895Z,44.53
2018-12-17T00:38:14.158Z,44.77
2018-12-17T00:40:40.415Z,42.15
2018-12-17T00:43:06.703Z,48.83
2018-12-17T00:45:32.995Z,48.52
2018-12-17T00:47:59.265Z,53.50
2018-12-17T00:50:25.592Z,46.58
2018-12-17T00:52:51.907Z,49.33
2018-12-17T00:55:18.209Z,51.35
2018-12-17T00:57:44.534Z,50.70
2018-12-17T01:00:11.060Z,52.35
2018-12-17T01:02:37.375Z,46.15
2018-12-17T01:05:04.719Z,45.67
2018-12-17T01:07:31.032Z,46.48
2018-12-17T01:09:57.312Z,49.53
2018-12-17T01:12:23.643Z,51.25
2018-12-17T01:14:50.239Z,58.15
2018-12-17T01:17:16.543Z,56.02
2018-12-17T01:19:42.800Z,49.67
2018-12-17T01:22:09.103Z,52.23
2018-12-17T01:24:35.420Z,52.08
2018-12-17T01:27:01.723Z,46.63
2018-12-17T01:29:28.023Z,48.92
2018-12-17T01:31:54.318Z,46.42
2018-12-17T01:34:20.642Z,47.62
2018-12-17T01:36:46.968Z,43.40
2018-12-17T01:39:13.373Z,53.45
2018-12-17T01:41:39.663Z,52.48
2018-12-17T01:44:05.962Z,53.10
2018-12-17T01:46:32.235Z,53.00
2018-12-17T01:48:58.715Z,54.30
2018-12-17T01:51:25.046Z,59.70
2018-12-17T01:53:51.351Z,53.65
2018-12-17T01:56:17.626Z,55.95
2018-12-17T01:58:43.917Z,55.60
2018-12-17T02:01:10.211Z,59.03
2018-12-17T02:03:36.506Z,56.13
2018-12-17T02:06:02.864Z,52.95
2018-12-17T02:08:29.400Z,60.20
2018-12-17T02:10:55.825Z,55.92
2018-12-17T02:13:22.160Z,52.30
2018-12-17T02:15:48.465Z,52.20
2018-12-17T02:18:14.822Z,54.75
2018-12-17T02:20:41.136Z,54.95
2018-12-17T02:23:07.446Z,61.08
2018-12-17T02:25:33.767Z,55.83
2018-12-17T02:28:00.114Z,53.60
2018-12-17T02:30:26.459Z,55.08
2018-12-17T02:32:52.768Z,59.30
2018-12-17T02:35:19.207Z,56.77
2018-12-17T02:37:45.526Z,57.13
2018-12-17T02:40:12.034Z,54.50
2018-12-17T02:42:38.352Z,52.85
2018-12-17T02:45:04.815Z,53.55
2018-12-17T02:47:31.122Z,54.30
2018-12-17T02:49:57.418Z,55.85
2018-12-17T02:52:23.744Z,60.50
2018-12-17T02:54:50.071Z,56.70
2018-12-17T02:57:16.368Z,54.15
2018-12-17T02:59:42.704Z,57.75
2018-12-17T03:02:09.017Z,45.48
2018-12-17T03:04:35.305Z,54.33
2018-12-17T03:07:01.692Z,52.17
2018-12-17T03:09:28.013Z,55.40
2018-12-17T03:11:54.298Z,56.53
2018-12-17T03:14:20.608Z,52.35
2018-12-17T03:16:46.904Z,51.00
2018-12-17T03:19:13.224Z,49.88
2018-12-17T03:21:39.523Z,50.28
2018-12-17T03:24:06.003Z,51.75
2018-12-17T03:26:32.380Z,46.08
2018-12-17T03:28:58.691Z,49.65
2018-12-17T03:31:25.299Z,56.15
2018-12-17T03:33:51.589Z,47.62
2018-12-17T03:36:17.913Z,53.73
2018-12-17T03:38:44.246Z,49.90
2018-12-17T03:41:10.573Z,51.00
2018-12-17T03:43:36.934Z,48.95
2018-12-17T03:46:03.301Z,51.33
2018-12-17T03:48:29.643Z,50.30
2018-12-17T03:50:55.979Z,58.52
2018-12-17T03:53:22.406Z,47.05
2018-12-17T03:55:48.691Z,59.67
2018-12-17T03:58:15.023Z,59.30
2018-12-17T04:00:41.355Z,60.38
2018-12-17T04:03:07.678Z,57.00
2018-12-17T04:05:33.955Z,55.95
2018-12-17T04:08:00.294Z,57.95
2018-12-17T04:10:26.611Z,52.73
2018-12-17T04:12:53.380Z,49.27
2018-12-17T04:15:19.796Z,55.58
2018-12-17T04:17:46.156Z,59.98
2018-12-17T04:20:12.541Z,51.37
2018-12-17T04:22:38.988Z,51.40
2018-12-17T04:25:05.317Z,55.12
2018-12-17T04:27:31.640Z,56.77
2018-12-17T04:29:57.985Z,55.55
2018-12-17T04:32:24.306Z,49.85
2018-12-17T04:34:50.655Z,55.25
2018-12-17T04:37:16.945Z,53.83
2018-12-17T04:39:43.228Z,59.03
2018-12-17T04:42:09.682Z,54.80
2018-12-17T04:44:35.998Z,52.90
2018-12-17T04:47:02.400Z,55.65
2018-12-17T04:49:28.720Z,55.95
2018-12-17T04:51:55.052Z,61.28
2018-12-17T04:54:21.334Z,58.23
2018-12-17T04:56:47.697Z,55.85
2018-12-17T04:59:14.846Z,58.90
2018-12-17T05:01:41.441Z,52.35
2018-12-17T05:04:07.776Z,53.78
2018-12-17T05:06:34.113Z,57.93
2018-12-17T05:09:00.431Z,58.48
2018-12-17T05:11:26.760Z,58.15
2018-12-17T05:13:53.057Z,60.43
2018-12-17T05:16:19.391Z,56.20
2018-12-17T05:18:45.745Z,52.60
2018-12-17T05:21:12.073Z,55.80
2018-12-17T05:23:38.416Z,50.60
2018-12-17T05:26:04.708Z,56.37
2018-12-17T05:28:30.982Z,53.20
2018-12-17T05:30:57.326Z,51.25
2018-12-17T05:33:23.961Z,50.48
2018-12-17T05:35:50.299Z,48.87
2018-12-17T05:38:16.564Z,49.40
2018-12-17T05:40:42.953Z,52.60
2018-12-17T05:43:09.266Z,62.73
2018-12-17T05:45:35.606Z,56.10
2018-12-17T05:48:02.137Z,54.40
2018-12-17T05:50:28.488Z,53.33
2018-12-17T05:52:54.819Z,66.50
2018-12-17T05:55:21.112Z,53.80
2018-12-17T05:57:47.418Z,58.23
2018-12-17T06:00:13.778Z,58.08
2018-12-17T06:02:40.059Z,58.52
2018-12-17T06:05:06.531Z,48.17
2018-12-17T06:07:32.851Z,55.28
2018-12-17T06:09:59.223Z,56.20
2018-12-17T06:12:25.542Z,55.38
2018-12-17T06:15:04.872Z,67.22
2018-12-17T06:17:31.340Z,53.40
2018-12-17T06:19:57.622Z,55.92
2018-12-17T06:22:23.931Z,60.60
2018-12-17T06:24:50.339Z,63.85
2018-12-17T06:27:16.752Z,56.68
2018-12-17T06:29:43.014Z,67.35
2018-12-17T06:32:09.344Z,72.30
2018-12-17T06:34:35.632Z,71.95
2018-12-17T06:37:01.940Z,64.95
2018-12-17T06:39:28.232Z,59.88
2018-12-17T06:41:54.528Z,63.23
2018-12-17T06:44:20.820Z,58.45
2018-12-17T06:46:47.105Z,63.50
2018-12-17T06:49:13.391Z,65.52
2018-12-17T06:51:39.898Z,59.88
2018-12-17T06:54:06.214Z,52.08
2018-12-17T06:56:32.496Z,65.50
2018-12-17T06:58:58.785Z,62.65
2018-12-17T07:01:25.056Z,70.83
2018-12-17T07:03:51.352Z,59.23
2018-12-17T07:06:17.765Z,60.05
2018-12-17T07:08:44.049Z,64.35
2018-12-17T07:11:10.358Z,65.03
2018-12-17T07:13:36.658Z,62.55
2018-12-17T07:16:02.979Z,63.45
2018-12-17T07:18:29.269Z,73.25
2018-12-17T07:20:55.575Z,61.37
2018-12-17T07:23:21.864Z,65.32
2018-12-17T07:25:48.184Z,63.63
2018-12-17T07:28:14.487Z,57.27
2018-12-17T07:30:40.764Z,59.33
2018-12-17T07:33:07.059Z,75.10
2018-12-17T07:35:33.395Z,56.80
2018-12-17T07:37:59.697Z,63.08
2018-12-17T07:40:26.014Z,62.43
2018-12-17T07:42:52.312Z,62.88
2018-12-17T07:45:18.600Z,59.67
2018-12-17T07:47:44.875Z,66.40
2018-12-17T07:50:11.303Z,66.20
2018-12-17T07:52:37.602Z,63.08
2018-12-17T07:55:04.424Z,66.37
2018-12-17T07:57:30.743Z,70.00
2018-12-17T07:59:57.104Z,69.00
2018-12-17T08:02:23.440Z,79.50
2018-12-17T08:04:49.753Z,80.60
2018-12-17T08:07:16.023Z,63.70
2018-12-17T08:09:42.299Z,78.80
2018-12-17T08:12:08.574Z,69.70
2018-12-17T08:14:34.855Z,64.32
2018-12-17T08:17:01.255Z,74.12
2018-12-17T08:19:29.029Z,72.78
2018-12-17T08:21:55.480Z,78.72
2018-12-17T08:24:21.732Z,66.92
2018-12-17T08:26:48.024Z,77.05
2018-12-17T08:29:14.425Z,77.30
2018-12-17T08:31:40.688Z,71.53
2018-12-17T08:34:06.939Z,85.28
2018-12-17T08:36:33.211Z,86.12
2018-12-17T08:38:59.460Z,94.07
2018-12-17T08:41:25.711Z,89.60
2018-12-17T08:43:52.020Z,90.62
2018-12-17T08:46:18.295Z,80.62
2018-12-17T08:48:44.603Z,78.12
2018-12-17T08:51:10.882Z,84.10
2018-12-17T08:53:37.144Z,92.62
2018-12-17T08:56:03.784Z,79.82
2018-12-17T08:58:30.220Z,88.67
2018-12-17T09:00:56.487Z,80.95
2018-12-17T09:03:22.779Z,80.12
2018-12-17T09:05:49.070Z,71.92
2018-12-17T09:08:15.322Z,82.12
2018-12-17T09:10:41.644Z,84.90
2018-12-17T09:13:07.985Z,82.92
2018-12-17T09:15:34.281Z,79.07
2018-12-17T09:18:00.536Z,93.92
2018-12-17T09:20:26.840Z,88.75
2018-12-17T09:22:53.090Z,71.40
2018-12-17T09:25:19.401Z,71.22
2018-12-17T09:27:45.655Z,76.70
2018-12-17T09:30:18.056Z,77.92
2018-12-17T09:32:40.438Z,72.25
2018-12-17T09:35:06.939Z,81.40
2018-12-17T09:37:33.247Z,76.92
2018-12-17T09:39:59.640Z,85.35
2018-12-17T09:42:25.918Z,76.15
2018-12-17T09:44:52.235Z,69.25
2018-12-17T09:47:18.482Z,64.17
2018-12-17T09:49:44.815Z,77.05
2018-12-17T09:52:11.090Z,69.45
2018-12-17T09:54:37.371Z,71.90
2018-12-17T09:57:03.684Z,73.47
2018-12-17T09:59:29.980Z,74.92
2018-12-17T10:01:56.259Z,74.55
2018-12-17T10:04:22.537Z,74.32
2018-12-17T10:06:48.800Z,66.72
2018-12-17T10:09:15.090Z,71.20
2018-12-17T10:11:41.402Z,70.37
2018-12-17T10:14:07.682Z,80.28
2018-12-17T10:16:33.986Z,75.42
2018-12-17T10:19:00.250Z,73.42
2018-12-17T10:21:26.514Z,83.30
2018-12-17T10:23:53.028Z,75.42
2018-12-17T10:26:19.472Z,71.95
2018-12-17T10:28:45.794Z,68.83
2018-12-17T10:31:12.072Z,77.97
2018-12-17T10:33:38.334Z,70.87
2018-12-17T10:36:04.633Z,67.95
2018-12-17T10:38:30.907Z,67.72
2018-12-17T10:40:57.232Z,68.42
2018-12-17T10:43:23.543Z,69.55
2018-12-17T10:45:49.801Z,72.72
2018-12-17T10:48:16.069Z,74.58
2018-12-17T10:50:42.370Z,62.38
2018-12-17T10:53:08.644Z,79.82
2018-12-17T10:55:34.916Z,61.60
2018-12-17T10:58:01.216Z,69.95
2018-12-17T11:00:39.380Z,63.33
2018-12-17T11:03:04.112Z,70.60
2018-12-17T11:05:30.836Z,63.13
2018-12-17T11:07:57.120Z,60.35
2018-12-17T11:10:23.363Z,63.45
2018-12-17T11:12:49.620Z,66.85
2018-12-17T11:15:15.919Z,61.80
2018-12-17T11:17:42.164Z,62.43
2018-12-17T11:20:08.552Z,59.70
2018-12-17T11:22:34.896Z,70.80
2018-12-17T11:25:01.206Z,57.10
2018-12-17T11:27:27.535Z,69.35
2018-12-17T11:29:53.814Z,70.75
2018-12-17T11:32:20.107Z,72.95
2018-12-17T11:34:47.314Z,61.85
2018-12-17T11:37:13.558Z,63.17
2018-12-17T11:39:39.885Z,58.10
2018-12-17T11:42:06.143Z,63.68
2018-12-17T11:44:32.426Z,62.13
2018-12-17T11:46:58.696Z,54.63
2018-12-17T11:49:24.967Z,65.90
2018-12-17T11:51:51.235Z,57.23
2018-12-17T11:54:17.512Z,62.85
2018-12-17T11:56:51.781Z,62.45
2018-12-17T11:59:18.033Z,74.67
2018-12-17T12:01:44.383Z,61.37
2018-12-17T12:04:10.673Z,60.55
2018-12-17T12:06:36.970Z,63.60
2018-12-17T12:09:04.091Z,63.00
2018-12-17T12:11:30.358Z,65.25
2018-12-17T12:13:56.644Z,56.53
2018-12-17T12:16:22.901Z,63.00
2018-12-17T12:18:49.192Z,53.65
2018-12-17T12:21:15.523Z,61.90
2018-12-17T12:23:41.777Z,64.27
2018-12-17T12:26:08.071Z,60.50
2018-12-17T12:28:34.365Z,62.53
2018-12-17T12:31:00.793Z,67.78
2018-12-17T12:33:27.227Z,58.70
2018-12-17T12:35:53.483Z,59.93
2018-12-17T12:38:19.770Z,64.77
2018-12-17T12:40:46.029Z,57.85
2018-12-17T12:43:12.314Z,64.05
2018-12-17T12:45:38.591Z,59.63
2018-12-17T12:48:04.924Z,52.58
2018-12-17T12:50:31.178Z,67.70
2018-12-17T12:52:57.460Z,63.65
2018-12-17T12:55:23.738Z,58.33
2018-12-17T12:57:49.986Z,69.53
2018-12-17T13:00:17.176Z,63.15
2018-12-17T13:02:43.475Z,56.28
2018-12-17T13:05:09.766Z,58.13
2018-12-17T13:07:36.275Z,51.20
2018-12-17T13:10:04.918Z,62.85
2018-12-17T13:12:31.214Z,55.48
2018-12-17T13:14:57.512Z,70.40
2018-12-17T13:17:26.948Z,69.03
2018-12-17T13:19:53.221Z,61.02
2018-12-17T13:22:19.519Z,63.65
2018-12-17T13:24:45.804Z,56.80
2018-12-17T13:27:12.085Z,66.33
2018-12-17T13:29:38.363Z,62.70
2018-12-17T13:32:04.679Z,62.33
2018-12-17T13:34:30.955Z,62.60
2018-12-17T13:36:57.236Z,65.05
2018-12-17T13:39:23.567Z,61.48
2018-12-17T13:41:49.875Z,54.08
2018-12-17T13:44:16.158Z,58.73
2018-12-17T13:46:42.456Z,56.20
2018-12-17T13:49:09.111Z,68.37
2018-12-17T13:51:37.477Z,62.38
2018-12-17T13:54:04.986Z,71.15
2018-12-17T13:56:31.508Z,92.82
2018-12-17T13:58:57.878Z,68.12
2018-12-17T14:01:24.291Z,69.80
2018-12-17T14:03:50.707Z,57.58
2018-12-17T14:06:16.996Z,59.83
2018-12-17T14:08:43.359Z,62.70
2018-12-17T14:11:09.628Z,60.00
2018-12-17T14:13:36.024Z,66.50
2018-12-17T14:16:08.479Z,66.10
2018-12-17T14:21:47.379Z,75.90
2018-12-17T14:24:13.690Z,65.03
2018-12-17T14:26:40.018Z,61.18
2018-12-17T14:29:06.298Z,57.45
2018-12-17T14:31:32.563Z,53.78
2018-12-17T14:33:58.874Z,60.23
2018-12-17T14:36:25.177Z,53.40
2018-12-17T14:38:51.477Z,63.45
2018-12-17T14:43:50.089Z,64.00
2018-12-17T14:46:16.396Z,60.10
2018-12-17T14:48:42.717Z,63.90
2018-12-17T14:51:09.032Z,55.70
2018-12-17T14:53:35.372Z,58.28
2018-12-17T14:56:01.681Z,61.35
2018-12-17T14:58:27.998Z,60.23
2018-12-17T15:00:54.295Z,65.03
2018-12-17T15:03:20.579Z,73.35
2018-12-17T15:05:46.871Z,64.00
2018-12-17T15:08:13.194Z,67.62
2018-12-17T15:10:39.500Z,69.65
2018-12-17T15:13:05.802Z,64.50
2018-12-17T15:15:32.087Z,72.92
2018-12-17T15:17:58.411Z,79.82
2018-12-17T15:20:24.747Z,88.80
2018-12-17T15:22:51.004Z,68.35
2018-12-17T15:25:17.406Z,76.80
2018-12-17T15:27:43.788Z,66.25
2018-12-17T15:30:10.324Z,67.80
2018-12-17T15:32:36.677Z,61.75
2018-12-17T15:35:03.520Z,63.15
2018-12-17T15:37:29.812Z,71.28
2018-12-17T15:39:56.168Z,65.12
2018-12-17T15:42:22.534Z,68.62
2018-12-17T15:44:48.810Z,62.85
2018-12-17T15:47:15.095Z,65.90
2018-12-17T15:49:41.387Z,74.42
2018-12-17T15:52:07.650Z,67.72
2018-12-17T15:54:33.943Z,66.57
2018-12-17T15:57:00.243Z,76.87
2018-12-17T15:59:26.548Z,65.00
2018-12-17T16:01:52.819Z,68.87
2018-12-17T16:04:19.191Z,68.95
2018-12-17T16:06:45.495Z,64.58
2018-12-17T16:09:11.779Z,60.48
2018-12-17T16:11:38.100Z,64.60
2018-12-17T16:14:04.369Z,68.60
2018-12-17T16:16:30.672Z,70.35
2018-12-17T16:18:56.975Z,74.77
2018-12-17T16:21:23.251Z,72.53
2018-12-17T16:23:49.521Z,75.95
2018-12-17T16:26:15.821Z,70.70
2018-12-17T16:28:42.115Z,65.80
2018-12-17T16:31:08.483Z,81.82
2018-12-17T16:33:34.813Z,78.10
2018-12-17T16:36:01.678Z,68.05
2018-12-17T16:38:27.955Z,69.50
2018-12-17T16:40:54.234Z,74.27
2018-12-17T16:43:20.543Z,65.75
2018-12-17T16:45:46.872Z,65.03
2018-12-17T16:48:13.180Z,62.50
2018-12-17T16:50:39.505Z,69.97
2018-12-17T16:53:05.787Z,66.60
2018-12-17T16:55:32.094Z,61.75
2018-12-17T16:57:58.370Z,66.92
2018-12-17T17:00:24.680Z,61.95
2018-12-17T17:02:51.027Z,62.08
2018-12-17T17:05:17.364Z,54.85
2018-12-17T17:07:43.649Z,61.42
2018-12-17T17:10:10.139Z,57.20
2018-12-17T17:12:36.455Z,58.98
2018-12-17T17:15:04.409Z,63.25
2018-12-17T17:17:30.745Z,66.75
2018-12-17T17:19:57.015Z,67.05
2018-12-17T17:22:23.299Z,64.65
2018-12-17T17:24:49.614Z,61.00
2018-12-17T17:27:15.939Z,55.98
2018-12-17T17:29:42.246Z,63.00
2018-12-17T17:32:11.780Z,78.80
2018-12-17T17:34:36.828Z,68.07
2018-12-17T17:37:03.137Z,64.80
2018-12-17T17:39:29.414Z,69.05
2018-12-17T17:41:55.716Z,58.10
2018-12-17T17:44:22.060Z,53.15
2018-12-17T17:46:48.343Z,64.20
2018-12-17T17:49:14.660Z,68.22
2018-12-17T17:51:40.917Z,69.77
2018-12-17T17:54:07.236Z,69.15
2018-12-17T17:56:33.539Z,78.50
2018-12-17T17:58:59.844Z,67.12
2018-12-17T18:01:26.175Z,56.88
2018-12-17T18:03:52.502Z,71.00
2018-12-17T18:06:18.819Z,62.65
2018-12-17T18:08:45.101Z,66.60
2018-12-17T18:11:11.453Z,69.53
2018-12-17T18:13:37.780Z,73.33
2018-12-17T18:16:04.108Z,63.65
2018-12-17T18:18:30.427Z,73.05
2018-12-17T18:20:56.711Z,60.73
2018-12-17T18:23:23.042Z,65.95
2018-12-17T18:25:49.360Z,68.50
2018-12-17T18:28:15.647Z,68.55
2018-12-17T18:30:41.971Z,64.03
2018-12-17T18:33:08.283Z,61.95
2018-12-17T18:35:34.561Z,67.37
2018-12-17T18:38:00.888Z,71.60
2018-12-17T18:40:27.190Z,72.12
2018-12-17T18:42:53.471Z,68.85
2018-12-17T18:45:19.795Z,61.83
2018-12-17T18:47:46.082Z,67.17
2018-12-17T18:50:12.540Z,66.00
2018-12-17T18:52:38.879Z,64.05
2018-12-17T18:55:05.208Z,65.60
2018-12-17T18:57:31.533Z,70.28
2018-12-17T18:59:58.905Z,73.33
2018-12-17T19:02:25.225Z,68.60
2018-12-17T19:04:51.591Z,76.65
2018-12-17T19:07:17.976Z,67.80
2018-12-17T19:09:44.274Z,68.72
2018-12-17T19:12:10.633Z,66.25
2018-12-17T19:14:36.936Z,69.50
2018-12-17T19:17:03.394Z,67.95
2018-12-17T19:19:29.808Z,66.40
2018-12-17T19:21:56.146Z,65.22
2018-12-17T19:24:22.482Z,66.90
2018-12-17T19:26:48.806Z,64.82
2018-12-17T19:29:15.182Z,62.67
2018-12-17T19:31:41.562Z,56.50
2018-12-17T19:34:07.955Z,56.98
2018-12-17T19:36:34.346Z,55.00
2018-12-17T19:39:00.617Z,61.48
2018-12-17T19:41:27.067Z,62.27
2018-12-17T19:43:53.404Z,68.87
2018-12-17T19:46:19.768Z,62.60
2018-12-17T19:48:46.081Z,56.08
2018-12-17T19:51:12.375Z,58.10
2018-12-17T19:53:38.673Z,61.40
2018-12-17T19:56:04.986Z,60.70
2018-12-17T19:58:31.882Z,66.65
2018-12-17T20:00:58.981Z,65.05
2018-12-17T20:03:25.307Z,60.70
2018-12-17T20:05:51.657Z,66.05
2018-12-17T20:08:17.963Z,68.80
2018-12-17T20:10:44.423Z,73.50
2018-12-17T20:13:10.714Z,64.25
2018-12-17T20:15:37.066Z,63.45
2018-12-17T20:18:03.370Z,58.75
2018-12-17T20:20:29.695Z,65.03
2018-12-17T20:22:56.036Z,67.53
2018-12-17T20:25:22.315Z,59.98
2018-12-17T20:27:48.665Z,66.47
2018-12-17T20:30:14.927Z,62.75
2018-12-17T20:32:41.256Z,70.17
2018-12-17T20:35:07.694Z,68.02
2018-12-17T20:37:34.127Z,61.55
2018-12-17T20:40:00.444Z,75.55
2018-12-17T20:42:27.488Z,64.12
2018-12-17T20:44:53.799Z,65.28
2018-12-17T20:47:20.106Z,62.23
2018-12-17T20:49:46.494Z,61.60
2018-12-17T20:52:12.814Z,64.92
2018-12-17T20:54:39.121Z,61.90
2018-12-17T20:57:05.432Z,68.45
2018-12-17T20:59:31.747Z,59.50
2018-12-17T21:01:58.071Z,61.33
2018-12-17T21:04:24.380Z,60.80
2018-12-17T21:06:50.670Z,69.90
2018-12-17T21:09:17.005Z,65.30
2018-12-17T21:11:43.375Z,65.52
2018-12-17T21:14:09.672Z,68.45
2018-12-17T21:16:35.958Z,58.85
2018-12-17T21:19:02.296Z,63.63
2018-12-17T21:21:28.619Z,78.02
2018-12-17T21:23:54.959Z,62.30
2018-12-17T21:26:21.314Z,68.42
2018-12-17T21:28:47.603Z,61.77
2018-12-17T21:31:13.896Z,59.85
2018-12-17T21:33:40.251Z,57.85
2018-12-17T21:36:06.536Z,58.55
2018-12-17T21:38:32.861Z,62.40
2018-12-17T21:40:59.169Z,63.60
2018-12-17T21:43:25.441Z,64.27
2018-12-17T21:45:51.807Z,65.37
2018-12-17T21:48:18.079Z,67.27
2018-12-17T21:50:44.389Z,67.12
2018-12-17T21:53:10.729Z,67.17
2018-12-17T21:55:36.998Z,68.12
2018-12-17T21:58:03.479Z,67.47
2018-12-17T22:00:29.796Z,67.97
2018-12-17T22:02:56.133Z,64.77
2018-12-17T22:05:22.471Z,68.42
2018-12-17T22:07:48.738Z,64.72
2018-12-17T22:10:17.114Z,72.62
2018-12-17T22:12:43.401Z,62.13
2018-12-17T22:15:09.704Z,70.47
2018-12-17T22:17:36.049Z,72.35
2018-12-17T22:20:02.953Z,66.47
2018-12-17T22:22:29.271Z,67.40
2018-12-17T22:24:55.596Z,65.03
2018-12-17T22:27:21.946Z,66.10
2018-12-17T22:29:48.208Z,61.70
2018-12-17T22:32:14.503Z,61.90
2018-12-17T22:34:40.802Z,66.33
2018-12-17T22:37:07.122Z,64.92
2018-12-17T22:39:33.430Z,66.90
2018-12-17T22:41:59.777Z,68.28
2018-12-17T22:44:26.079Z,61.92
2018-12-17T22:46:52.451Z,79.07
2018-12-17T22:49:18.751Z,61.53
2018-12-17T22:51:45.039Z,73.07
2018-12-17T22:54:11.361Z,55.98
2018-12-17T22:56:37.681Z,69.60
2018-12-17T22:59:03.976Z,74.40
2018-12-17T23:01:30.418Z,66.33
2018-12-17T23:03:56.808Z,72.47
2018-12-17T23:06:23.350Z,69.35
2018-12-17T23:09:01.617Z,70.78
2018-12-17T23:11:42.199Z,61.58
2018-12-17T23:14:20.834Z,66.75
2018-12-17T23:16:59.463Z,62.25
2018-12-17T23:19:25.560Z,67.78
2018-12-17T23:21:51.975Z,66.10
2018-12-17T23:24:18.289Z,69.22
2018-12-17T23:26:44.590Z,73.05
2018-12-17T23:29:11.051Z,65.87
2018-12-17T23:31:37.376Z,63.20
2018-12-17T23:34:03.708Z,62.43
2018-12-17T23:36:30.186Z,67.12
2018-12-17T23:38:56.496Z,60.33
2018-12-17T23:41:22.807Z,63.63
2018-12-17T23:43:49.168Z,67.85
2018-12-17T23:46:15.507Z,61.90
2018-12-17T23:48:41.824Z,63.17
2018-12-17T23:51:08.249Z,60.52
2018-12-17T23:53:34.564Z,50.75
2018-12-17T23:56:00.885Z,59.80
2018-12-17T23:58:27.220Z,59.75
